sensor_id;sensor_type;location;lat;lon;timestamp;P1;durP1;ratioP1;P2;durP2;ratioP2
35540;SDS011;21650;48.840;9.162;2022-07-06T00:01:10;2.53;;;2.33;;
35540;SDS011;21650;48.840;9.162;2022-07-06T00:03:36;3.10;;;2.10;;
35540;SDS011;21650;48.840;9.162;2022-07-06T00:06:01;7.53;;;2.93;;
35540;SDS011;21650;48.840;9.162;2022-07-06T00:08:27;4.77;;;2.00;;
35540;SDS011;21650;48.840;9.162;2022-07-06T00:10:53;2.47;;;1.80;;
35540;SDS011;21650;48.840;9.162;2022-07-06T00:13:18;3.70;;;2.63;;
35540;SDS011;21650;48.840;9.162;2022-07-06T00:15:44;4.93;;;2.13;;
35540;SDS011;21650;48.840;9.162;2022-07-06T00:18:09;3.60;;;2.20;;
35540;SDS011;21650;48.840;9.162;2022-07-06T00:20:35;4.00;;;2.37;;
35540;SDS011;21650;48.840;9.162;2022-07-06T00:23:00;4.80;;;2.07;;
35540;SDS011;21650;48.840;9.162;2022-07-06T00:25:26;2.73;;;2.47;;
35540;SDS011;21650;48.840;9.162;2022-07-06T00:27:51;4.67;;;2.60;;
35540;SDS011;21650;48.840;9.162;2022-07-06T00:30:17;3.37;;;2.30;;
35540;SDS011;21650;48.840;9.162;2022-07-06T00:32:43;5.30;;;2.40;;
35540;SDS011;21650;48.840;9.162;2022-07-06T00:35:08;4.47;;;2.60;;
35540;SDS011;21650;48.840;9.162;2022-07-06T00:37:34;2.87;;;2.33;;
35540;SDS011;21650;48.840;9.162;2022-07-06T00:39:59;3.23;;;2.23;;
35540;SDS011;21650;48.840;9.162;2022-07-06T00:42:25;2.93;;;2.20;;
35540;SDS011;21650;48.840;9.162;2022-07-06T00:44:50;5.37;;;2.57;;
35540;SDS011;21650;48.840;9.162;2022-07-06T00:47:16;3.03;;;2.00;;
35540;SDS011;21650;48.840;9.162;2022-07-06T00:49:42;4.20;;;2.60;;
35540;SDS011;21650;48.840;9.162;2022-07-06T00:52:26;2.63;;;2.10;;
35540;SDS011;21650;48.840;9.162;2022-07-06T00:54:51;5.00;;;2.33;;
35540;SDS011;21650;48.840;9.162;2022-07-06T00:57:18;4.67;;;2.60;;
35540;SDS011;21650;48.840;9.162;2022-07-06T00:59:44;2.40;;;2.20;;
35540;SDS011;21650;48.840;9.162;2022-07-06T01:02:09;4.40;;;2.53;;
35540;SDS011;21650;48.840;9.162;2022-07-06T01:04:35;2.10;;;1.90;;
35540;SDS011;21650;48.840;9.162;2022-07-06T01:07:01;4.60;;;2.60;;
35540;SDS011;21650;48.840;9.162;2022-07-06T01:09:27;2.50;;;2.30;;
35540;SDS011;21650;48.840;9.162;2022-07-06T01:11:52;3.13;;;2.40;;
35540;SDS011;21650;48.840;9.162;2022-07-06T01:14:19;3.50;;;2.33;;
35540;SDS011;21650;48.840;9.162;2022-07-06T01:16:45;4.30;;;2.50;;
35540;SDS011;21650;48.840;9.162;2022-07-06T01:19:11;4.57;;;2.53;;
35540;SDS011;21650;48.840;9.162;2022-07-06T01:21:39;2.47;;;2.03;;
35540;SDS011;21650;48.840;9.162;2022-07-06T01:24:05;7.63;;;2.30;;
35540;SDS011;21650;48.840;9.162;2022-07-06T01:26:31;3.60;;;2.47;;
35540;SDS011;21650;48.840;9.162;2022-07-06T01:28:57;3.40;;;2.40;;
35540;SDS011;21650;48.840;9.162;2022-07-06T01:31:24;4.73;;;2.20;;
35540;SDS011;21650;48.840;9.162;2022-07-06T01:33:51;2.40;;;2.10;;
35540;SDS011;21650;48.840;9.162;2022-07-06T01:36:19;3.30;;;2.30;;
35540;SDS011;21650;48.840;9.162;2022-07-06T01:38:45;3.73;;;2.50;;
35540;SDS011;21650;48.840;9.162;2022-07-06T01:41:15;3.40;;;2.00;;
35540;SDS011;21650;48.840;9.162;2022-07-06T01:43:41;3.93;;;2.40;;
35540;SDS011;21650;48.840;9.162;2022-07-06T01:46:07;3.70;;;2.33;;
35540;SDS011;21650;48.840;9.162;2022-07-06T01:48:33;3.73;;;2.40;;
35540;SDS011;21650;48.840;9.162;2022-07-06T01:50:59;4.83;;;2.67;;
35540;SDS011;21650;48.840;9.162;2022-07-06T01:53:24;3.27;;;1.90;;
35540;SDS011;21650;48.840;9.162;2022-07-06T01:55:50;6.17;;;2.43;;
35540;SDS011;21650;48.840;9.162;2022-07-06T01:58:15;4.97;;;2.00;;
35540;SDS011;21650;48.840;9.162;2022-07-06T02:00:41;3.43;;;2.40;;
35540;SDS011;21650;48.840;9.162;2022-07-06T02:03:07;3.27;;;2.10;;
35540;SDS011;21650;48.840;9.162;2022-07-06T02:05:32;7.13;;;2.60;;
35540;SDS011;21650;48.840;9.162;2022-07-06T02:07:58;5.00;;;2.37;;
35540;SDS011;21650;48.840;9.162;2022-07-06T02:10:24;2.40;;;1.90;;
35540;SDS011;21650;48.840;9.162;2022-07-06T02:12:49;2.93;;;2.37;;
35540;SDS011;21650;48.840;9.162;2022-07-06T02:15:15;6.67;;;2.33;;
35540;SDS011;21650;48.840;9.162;2022-07-06T02:17:41;2.70;;;2.10;;
35540;SDS011;21650;48.840;9.162;2022-07-06T02:20:06;3.90;;;1.87;;
35540;SDS011;21650;48.840;9.162;2022-07-06T02:22:32;4.23;;;2.03;;
35540;SDS011;21650;48.840;9.162;2022-07-06T02:24:58;3.43;;;2.13;;
35540;SDS011;21650;48.840;9.162;2022-07-06T02:27:24;4.47;;;2.67;;
35540;SDS011;21650;48.840;9.162;2022-07-06T02:29:50;5.87;;;2.73;;
35540;SDS011;21650;48.840;9.162;2022-07-06T02:32:16;4.70;;;2.43;;
35540;SDS011;21650;48.840;9.162;2022-07-06T02:34:41;3.87;;;2.33;;
35540;SDS011;21650;48.840;9.162;2022-07-06T02:37:07;4.37;;;2.40;;
35540;SDS011;21650;48.840;9.162;2022-07-06T02:39:33;3.23;;;2.30;;
35540;SDS011;21650;48.840;9.162;2022-07-06T02:41:58;3.37;;;2.43;;
35540;SDS011;21650;48.840;9.162;2022-07-06T02:44:24;2.80;;;2.50;;
35540;SDS011;21650;48.840;9.162;2022-07-06T02:46:49;5.87;;;2.67;;
35540;SDS011;21650;48.840;9.162;2022-07-06T02:49:15;3.37;;;2.47;;
35540;SDS011;21650;48.840;9.162;2022-07-06T02:51:40;3.23;;;2.37;;
35540;SDS011;21650;48.840;9.162;2022-07-06T02:54:06;2.77;;;2.20;;
35540;SDS011;21650;48.840;9.162;2022-07-06T02:56:32;4.87;;;2.63;;
35540;SDS011;21650;48.840;9.162;2022-07-06T02:58:57;7.47;;;2.83;;
35540;SDS011;21650;48.840;9.162;2022-07-06T03:01:23;3.67;;;2.50;;
35540;SDS011;21650;48.840;9.162;2022-07-06T03:03:48;2.67;;;2.17;;
35540;SDS011;21650;48.840;9.162;2022-07-06T03:06:14;6.03;;;2.50;;
35540;SDS011;21650;48.840;9.162;2022-07-06T03:08:39;15.17;;;3.03;;
35540;SDS011;21650;48.840;9.162;2022-07-06T03:11:05;4.50;;;2.67;;
35540;SDS011;21650;48.840;9.162;2022-07-06T03:13:31;4.90;;;2.93;;
35540;SDS011;21650;48.840;9.162;2022-07-06T03:15:56;2.70;;;2.27;;
35540;SDS011;21650;48.840;9.162;2022-07-06T03:18:22;2.10;;;1.90;;
35540;SDS011;21650;48.840;9.162;2022-07-06T03:20:48;3.93;;;2.97;;
35540;SDS011;21650;48.840;9.162;2022-07-06T03:23:13;8.27;;;2.67;;
35540;SDS011;21650;48.840;9.162;2022-07-06T03:25:39;4.27;;;2.60;;
35540;SDS011;21650;48.840;9.162;2022-07-06T03:28:04;3.30;;;3.00;;
35540;SDS011;21650;48.840;9.162;2022-07-06T03:30:30;3.10;;;2.20;;
35540;SDS011;21650;48.840;9.162;2022-07-06T03:32:56;5.93;;;3.00;;
35540;SDS011;21650;48.840;9.162;2022-07-06T03:35:21;3.63;;;2.67;;
35540;SDS011;21650;48.840;9.162;2022-07-06T03:37:47;4.37;;;2.57;;
35540;SDS011;21650;48.840;9.162;2022-07-06T03:40:13;5.13;;;2.87;;
35540;SDS011;21650;48.840;9.162;2022-07-06T03:42:39;6.10;;;2.80;;
35540;SDS011;21650;48.840;9.162;2022-07-06T03:45:05;5.10;;;3.03;;
35540;SDS011;21650;48.840;9.162;2022-07-06T03:47:31;6.23;;;2.87;;
35540;SDS011;21650;48.840;9.162;2022-07-06T03:49:57;3.60;;;2.63;;
35540;SDS011;21650;48.840;9.162;2022-07-06T03:52:23;3.77;;;3.00;;
35540;SDS011;21650;48.840;9.162;2022-07-06T03:54:48;5.60;;;3.20;;
35540;SDS011;21650;48.840;9.162;2022-07-06T03:57:14;4.07;;;3.03;;
35540;SDS011;21650;48.840;9.162;2022-07-06T03:59:39;8.00;;;3.60;;
35540;SDS011;21650;48.840;9.162;2022-07-06T04:02:05;5.80;;;3.10;;
35540;SDS011;21650;48.840;9.162;2022-07-06T04:04:31;3.73;;;3.07;;
35540;SDS011;21650;48.840;9.162;2022-07-06T04:06:58;5.40;;;3.10;;
35540;SDS011;21650;48.840;9.162;2022-07-06T04:09:24;3.30;;;3.03;;
35540;SDS011;21650;48.840;9.162;2022-07-06T04:11:50;5.57;;;3.33;;
35540;SDS011;21650;48.840;9.162;2022-07-06T04:14:15;3.70;;;3.27;;
35540;SDS011;21650;48.840;9.162;2022-07-06T04:16:41;4.50;;;3.03;;
35540;SDS011;21650;48.840;9.162;2022-07-06T04:19:07;5.37;;;3.53;;
35540;SDS011;21650;48.840;9.162;2022-07-06T04:21:32;5.87;;;3.27;;
35540;SDS011;21650;48.840;9.162;2022-07-06T04:23:58;4.27;;;3.87;;
35540;SDS011;21650;48.840;9.162;2022-07-06T04:26:23;7.23;;;3.70;;
35540;SDS011;21650;48.840;9.162;2022-07-06T04:28:49;6.40;;;3.70;;
35540;SDS011;21650;48.840;9.162;2022-07-06T04:31:15;4.73;;;3.90;;
35540;SDS011;21650;48.840;9.162;2022-07-06T04:33:41;4.73;;;4.10;;
35540;SDS011;21650;48.840;9.162;2022-07-06T04:36:08;4.40;;;4.00;;
35540;SDS011;21650;48.840;9.162;2022-07-06T04:38:34;7.20;;;4.00;;
35540;SDS011;21650;48.840;9.162;2022-07-06T04:41:00;7.10;;;4.20;;
35540;SDS011;21650;48.840;9.162;2022-07-06T04:43:25;6.20;;;4.30;;
35540;SDS011;21650;48.840;9.162;2022-07-06T04:45:51;5.60;;;4.30;;
35540;SDS011;21650;48.840;9.162;2022-07-06T04:48:16;9.53;;;4.60;;
35540;SDS011;21650;48.840;9.162;2022-07-06T04:50:42;5.83;;;3.90;;
35540;SDS011;21650;48.840;9.162;2022-07-06T04:53:07;8.77;;;5.03;;
35540;SDS011;21650;48.840;9.162;2022-07-06T04:55:33;5.17;;;3.77;;
35540;SDS011;21650;48.840;9.162;2022-07-06T04:57:59;5.00;;;4.50;;
35540;SDS011;21650;48.840;9.162;2022-07-06T05:00:25;5.20;;;4.70;;
35540;SDS011;21650;48.840;9.162;2022-07-06T05:02:50;5.10;;;4.40;;
35540;SDS011;21650;48.840;9.162;2022-07-06T05:05:16;4.90;;;4.40;;
35540;SDS011;21650;48.840;9.162;2022-07-06T05:07:42;5.80;;;4.53;;
35540;SDS011;21650;48.840;9.162;2022-07-06T05:10:10;5.80;;;4.23;;
35540;SDS011;21650;48.840;9.162;2022-07-06T05:12:36;4.83;;;4.00;;
35540;SDS011;21650;48.840;9.162;2022-07-06T05:15:03;4.93;;;4.37;;
35540;SDS011;21650;48.840;9.162;2022-07-06T05:17:29;6.50;;;4.63;;
35540;SDS011;21650;48.840;9.162;2022-07-06T05:19:55;6.33;;;4.27;;
35540;SDS011;21650;48.840;9.162;2022-07-06T05:22:20;6.27;;;4.30;;
35540;SDS011;21650;48.840;9.162;2022-07-06T05:24:46;6.37;;;4.30;;
35540;SDS011;21650;48.840;9.162;2022-07-06T05:27:12;4.80;;;4.17;;
35540;SDS011;21650;48.840;9.162;2022-07-06T05:29:37;7.57;;;3.70;;
35540;SDS011;21650;48.840;9.162;2022-07-06T05:32:03;7.40;;;3.80;;
35540;SDS011;21650;48.840;9.162;2022-07-06T05:34:29;4.37;;;3.83;;
35540;SDS011;21650;48.840;9.162;2022-07-06T05:36:55;8.43;;;4.70;;
35540;SDS011;21650;48.840;9.162;2022-07-06T05:39:20;4.73;;;3.60;;
35540;SDS011;21650;48.840;9.162;2022-07-06T05:41:47;7.03;;;3.53;;
35540;SDS011;21650;48.840;9.162;2022-07-06T05:44:13;4.80;;;3.70;;
35540;SDS011;21650;48.840;9.162;2022-07-06T05:46:39;3.57;;;3.27;;
35540;SDS011;21650;48.840;9.162;2022-07-06T05:49:05;6.20;;;3.63;;
35540;SDS011;21650;48.840;9.162;2022-07-06T05:51:49;7.77;;;3.33;;
35540;SDS011;21650;48.840;9.162;2022-07-06T05:54:15;4.63;;;3.63;;
35540;SDS011;21650;48.840;9.162;2022-07-06T05:56:41;4.73;;;3.33;;
35540;SDS011;21650;48.840;9.162;2022-07-06T05:59:06;6.00;;;4.00;;
35540;SDS011;21650;48.840;9.162;2022-07-06T06:01:32;6.63;;;3.07;;
35540;SDS011;21650;48.840;9.162;2022-07-06T06:03:58;4.00;;;3.17;;
35540;SDS011;21650;48.840;9.162;2022-07-06T06:06:24;3.57;;;3.23;;
35540;SDS011;21650;48.840;9.162;2022-07-06T06:08:56;4.03;;;3.27;;
35540;SDS011;21650;48.840;9.162;2022-07-06T06:11:21;4.83;;;3.17;;
35540;SDS011;21650;48.840;9.162;2022-07-06T06:13:47;3.03;;;2.60;;
35540;SDS011;21650;48.840;9.162;2022-07-06T06:16:13;5.53;;;2.83;;
35540;SDS011;21650;48.840;9.162;2022-07-06T06:18:38;6.20;;;2.97;;
35540;SDS011;21650;48.840;9.162;2022-07-06T06:21:04;3.47;;;2.97;;
35540;SDS011;21650;48.840;9.162;2022-07-06T06:23:30;5.23;;;3.87;;
35540;SDS011;21650;48.840;9.162;2022-07-06T06:25:55;6.90;;;2.77;;
35540;SDS011;21650;48.840;9.162;2022-07-06T06:28:21;3.57;;;3.20;;
35540;SDS011;21650;48.840;9.162;2022-07-06T06:30:46;5.57;;;3.00;;
35540;SDS011;21650;48.840;9.162;2022-07-06T06:33:16;4.33;;;3.20;;
35540;SDS011;21650;48.840;9.162;2022-07-06T06:35:47;4.27;;;2.83;;
35540;SDS011;21650;48.840;9.162;2022-07-06T06:38:14;5.00;;;3.33;;
35540;SDS011;21650;48.840;9.162;2022-07-06T06:40:41;3.27;;;2.80;;
35540;SDS011;21650;48.840;9.162;2022-07-06T06:43:07;7.03;;;3.10;;
35540;SDS011;21650;48.840;9.162;2022-07-06T06:45:32;3.40;;;3.10;;
35540;SDS011;21650;48.840;9.162;2022-07-06T06:47:58;7.93;;;3.83;;
35540;SDS011;21650;48.840;9.162;2022-07-06T06:50:24;5.80;;;3.40;;
35540;SDS011;21650;48.840;9.162;2022-07-06T06:52:50;6.50;;;3.20;;
35540;SDS011;21650;48.840;9.162;2022-07-06T06:55:16;6.47;;;3.27;;
35540;SDS011;21650;48.840;9.162;2022-07-06T06:57:42;7.40;;;2.97;;
35540;SDS011;21650;48.840;9.162;2022-07-06T07:00:08;7.77;;;3.37;;
35540;SDS011;21650;48.840;9.162;2022-07-06T07:02:34;6.90;;;3.07;;
35540;SDS011;21650;48.840;9.162;2022-07-06T07:05:00;9.67;;;3.33;;
35540;SDS011;21650;48.840;9.162;2022-07-06T07:07:26;5.87;;;3.33;;
35540;SDS011;21650;48.840;9.162;2022-07-06T07:09:51;3.50;;;3.17;;
35540;SDS011;21650;48.840;9.162;2022-07-06T07:12:17;6.87;;;3.33;;
35540;SDS011;21650;48.840;9.162;2022-07-06T07:14:43;4.50;;;3.13;;
35540;SDS011;21650;48.840;9.162;2022-07-06T07:17:09;12.10;;;3.40;;
35540;SDS011;21650;48.840;9.162;2022-07-06T07:19:36;6.20;;;4.10;;
35540;SDS011;21650;48.840;9.162;2022-07-06T07:22:02;3.70;;;3.00;;
35540;SDS011;21650;48.840;9.162;2022-07-06T07:24:28;5.10;;;3.30;;
35540;SDS011;21650;48.840;9.162;2022-07-06T07:26:53;5.83;;;3.20;;
35540;SDS011;21650;48.840;9.162;2022-07-06T07:29:19;7.87;;;3.30;;
35540;SDS011;21650;48.840;9.162;2022-07-06T07:31:44;6.50;;;3.57;;
35540;SDS011;21650;48.840;9.162;2022-07-06T07:34:10;4.77;;;2.77;;
35540;SDS011;21650;48.840;9.162;2022-07-06T07:36:36;8.87;;;3.17;;
35540;SDS011;21650;48.840;9.162;2022-07-06T07:39:02;6.87;;;3.23;;
35540;SDS011;21650;48.840;9.162;2022-07-06T07:41:28;4.73;;;3.03;;
35540;SDS011;21650;48.840;9.162;2022-07-06T07:43:53;4.77;;;3.07;;
35540;SDS011;21650;48.840;9.162;2022-07-06T07:46:19;6.50;;;3.33;;
35540;SDS011;21650;48.840;9.162;2022-07-06T07:48:45;3.83;;;3.40;;
35540;SDS011;21650;48.840;9.162;2022-07-06T07:51:10;4.20;;;2.90;;
35540;SDS011;21650;48.840;9.162;2022-07-06T07:53:36;2.77;;;2.40;;
35540;SDS011;21650;48.840;9.162;2022-07-06T07:56:01;6.03;;;2.87;;
35540;SDS011;21650;48.840;9.162;2022-07-06T07:58:27;3.70;;;2.80;;
35540;SDS011;21650;48.840;9.162;2022-07-06T08:00:53;5.80;;;3.30;;
35540;SDS011;21650;48.840;9.162;2022-07-06T08:03:18;5.27;;;3.17;;
35540;SDS011;21650;48.840;9.162;2022-07-06T08:05:44;6.57;;;2.90;;
35540;SDS011;21650;48.840;9.162;2022-07-06T08:08:12;3.87;;;3.17;;
35540;SDS011;21650;48.840;9.162;2022-07-06T08:10:37;4.13;;;2.90;;
35540;SDS011;21650;48.840;9.162;2022-07-06T08:13:03;4.23;;;2.90;;
35540;SDS011;21650;48.840;9.162;2022-07-06T08:15:28;6.53;;;2.77;;
35540;SDS011;21650;48.840;9.162;2022-07-06T08:17:54;5.30;;;2.90;;
35540;SDS011;21650;48.840;9.162;2022-07-06T08:20:19;9.33;;;3.10;;
35540;SDS011;21650;48.840;9.162;2022-07-06T08:22:45;6.57;;;3.00;;
35540;SDS011;21650;48.840;9.162;2022-07-06T08:25:10;3.73;;;2.67;;
35540;SDS011;21650;48.840;9.162;2022-07-06T08:27:36;5.20;;;3.37;;
35540;SDS011;21650;48.840;9.162;2022-07-06T08:30:05;5.33;;;3.20;;
35540;SDS011;21650;48.840;9.162;2022-07-06T08:32:31;3.67;;;3.03;;
35540;SDS011;21650;48.840;9.162;2022-07-06T08:34:56;5.03;;;2.80;;
35540;SDS011;21650;48.840;9.162;2022-07-06T08:37:22;4.83;;;2.93;;
35540;SDS011;21650;48.840;9.162;2022-07-06T08:39:47;3.43;;;2.80;;
35540;SDS011;21650;48.840;9.162;2022-07-06T08:42:14;5.97;;;2.43;;
35540;SDS011;21650;48.840;9.162;2022-07-06T08:44:41;4.20;;;2.50;;
35540;SDS011;21650;48.840;9.162;2022-07-06T08:47:08;3.67;;;2.60;;
35540;SDS011;21650;48.840;9.162;2022-07-06T08:49:35;4.10;;;3.07;;
35540;SDS011;21650;48.840;9.162;2022-07-06T08:52:02;3.20;;;2.90;;
35540;SDS011;21650;48.840;9.162;2022-07-06T08:54:29;6.77;;;2.60;;
35540;SDS011;21650;48.840;9.162;2022-07-06T08:56:55;3.73;;;2.60;;
35540;SDS011;21650;48.840;9.162;2022-07-06T08:59:21;2.97;;;2.53;;
35540;SDS011;21650;48.840;9.162;2022-07-06T09:01:46;4.03;;;3.17;;
35540;SDS011;21650;48.840;9.162;2022-07-06T09:04:15;4.70;;;2.90;;
35540;SDS011;21650;48.840;9.162;2022-07-06T09:06:42;6.17;;;3.43;;
35540;SDS011;21650;48.840;9.162;2022-07-06T09:09:09;5.60;;;3.07;;
35540;SDS011;21650;48.840;9.162;2022-07-06T09:11:38;4.33;;;3.50;;
35540;SDS011;21650;48.840;9.162;2022-07-06T09:14:03;3.27;;;2.53;;
35540;SDS011;21650;48.840;9.162;2022-07-06T09:16:29;4.63;;;3.00;;
35540;SDS011;21650;48.840;9.162;2022-07-06T09:18:55;4.80;;;2.23;;
35540;SDS011;21650;48.840;9.162;2022-07-06T09:21:22;8.47;;;2.90;;
35540;SDS011;21650;48.840;9.162;2022-07-06T09:23:53;4.53;;;2.47;;
35540;SDS011;21650;48.840;9.162;2022-07-06T09:26:20;7.30;;;2.90;;
35540;SDS011;21650;48.840;9.162;2022-07-06T09:28:46;8.97;;;2.67;;
35540;SDS011;21650;48.840;9.162;2022-07-06T09:31:12;4.87;;;3.10;;
35540;SDS011;21650;48.840;9.162;2022-07-06T09:33:38;4.67;;;2.60;;
35540;SDS011;21650;48.840;9.162;2022-07-06T09:36:04;3.37;;;2.60;;
35540;SDS011;21650;48.840;9.162;2022-07-06T09:38:33;2.93;;;2.23;;
35540;SDS011;21650;48.840;9.162;2022-07-06T09:40:58;7.63;;;2.90;;
35540;SDS011;21650;48.840;9.162;2022-07-06T09:43:27;6.77;;;3.30;;
35540;SDS011;21650;48.840;9.162;2022-07-06T09:45:56;3.17;;;2.60;;
35540;SDS011;21650;48.840;9.162;2022-07-06T09:48:26;4.20;;;3.00;;
35540;SDS011;21650;48.840;9.162;2022-07-06T09:53:23;7.47;;;3.10;;
35540;SDS011;21650;48.840;9.162;2022-07-06T09:55:51;6.30;;;3.20;;
35540;SDS011;21650;48.840;9.162;2022-07-06T09:58:23;12.70;;;3.30;;
35540;SDS011;21650;48.840;9.162;2022-07-06T10:00:49;3.87;;;3.20;;
35540;SDS011;21650;48.840;9.162;2022-07-06T10:03:16;3.30;;;2.60;;
35540;SDS011;21650;48.840;9.162;2022-07-06T10:05:44;3.67;;;3.20;;
35540;SDS011;21650;48.840;9.162;2022-07-06T10:08:15;5.53;;;3.53;;
35540;SDS011;21650;48.840;9.162;2022-07-06T10:10:42;6.33;;;2.97;;
35540;SDS011;21650;48.840;9.162;2022-07-06T10:13:08;3.40;;;2.50;;
35540;SDS011;21650;48.840;9.162;2022-07-06T10:15:37;5.33;;;3.10;;
35540;SDS011;21650;48.840;9.162;2022-07-06T10:18:05;5.77;;;3.13;;
35540;SDS011;21650;48.840;9.162;2022-07-06T10:20:33;6.90;;;3.47;;
35540;SDS011;21650;48.840;9.162;2022-07-06T10:23:04;6.03;;;3.10;;
35540;SDS011;21650;48.840;9.162;2022-07-06T10:25:31;5.03;;;3.50;;
35540;SDS011;21650;48.840;9.162;2022-07-06T10:27:59;8.67;;;2.70;;
35540;SDS011;21650;48.840;9.162;2022-07-06T10:30:25;4.63;;;2.87;;
35540;SDS011;21650;48.840;9.162;2022-07-06T10:32:52;3.07;;;2.63;;
35540;SDS011;21650;48.840;9.162;2022-07-06T10:35:21;7.37;;;3.20;;
35540;SDS011;21650;48.840;9.162;2022-07-06T10:38:02;5.27;;;2.77;;
35540;SDS011;21650;48.840;9.162;2022-07-06T10:40:33;4.50;;;3.70;;
35540;SDS011;21650;48.840;9.162;2022-07-06T10:43:21;6.97;;;3.03;;
35540;SDS011;21650;48.840;9.162;2022-07-06T10:53:15;5.97;;;3.53;;
35540;SDS011;21650;48.840;9.162;2022-07-06T10:55:46;4.30;;;2.47;;
35540;SDS011;21650;48.840;9.162;2022-07-06T10:58:12;13.90;;;3.47;;
35540;SDS011;21650;48.840;9.162;2022-07-06T11:00:52;4.73;;;2.63;;
35540;SDS011;21650;48.840;9.162;2022-07-06T11:06:10;6.73;;;2.37;;
35540;SDS011;21650;48.840;9.162;2022-07-06T11:08:44;3.87;;;2.57;;
35540;SDS011;21650;48.840;9.162;2022-07-06T11:13:49;3.03;;;2.50;;
35540;SDS011;21650;48.840;9.162;2022-07-06T11:16:16;3.20;;;2.20;;
35540;SDS011;21650;48.840;9.162;2022-07-06T11:18:46;5.53;;;2.80;;
35540;SDS011;21650;48.840;9.162;2022-07-06T11:21:31;4.80;;;2.40;;
35540;SDS011;21650;48.840;9.162;2022-07-06T11:24:00;3.57;;;2.77;;
35540;SDS011;21650;48.840;9.162;2022-07-06T11:26:25;3.17;;;2.60;;
35540;SDS011;21650;48.840;9.162;2022-07-06T11:28:52;5.27;;;2.30;;
35540;SDS011;21650;48.840;9.162;2022-07-06T11:31:18;6.30;;;2.87;;
35540;SDS011;21650;48.840;9.162;2022-07-06T11:33:44;4.73;;;2.60;;
35540;SDS011;21650;48.840;9.162;2022-07-06T11:36:12;5.50;;;3.20;;
35540;SDS011;21650;48.840;9.162;2022-07-06T11:38:40;3.83;;;2.40;;
35540;SDS011;21650;48.840;9.162;2022-07-06T11:41:07;7.53;;;3.40;;
35540;SDS011;21650;48.840;9.162;2022-07-06T11:43:33;6.03;;;2.43;;
35540;SDS011;21650;48.840;9.162;2022-07-06T11:45:59;4.47;;;2.50;;
35540;SDS011;21650;48.840;9.162;2022-07-06T11:48:24;6.57;;;2.90;;
35540;SDS011;21650;48.840;9.162;2022-07-06T11:51:23;4.83;;;3.27;;
35540;SDS011;21650;48.840;9.162;2022-07-06T11:53:45;6.87;;;3.13;;
35540;SDS011;21650;48.840;9.162;2022-07-06T11:56:13;4.70;;;2.47;;
35540;SDS011;21650;48.840;9.162;2022-07-06T11:58:40;4.27;;;2.80;;
35540;SDS011;21650;48.840;9.162;2022-07-06T12:01:08;6.27;;;3.10;;
35540;SDS011;21650;48.840;9.162;2022-07-06T12:03:35;7.30;;;2.37;;
35540;SDS011;21650;48.840;9.162;2022-07-06T12:06:01;7.17;;;2.87;;
35540;SDS011;21650;48.840;9.162;2022-07-06T12:08:31;4.63;;;2.43;;
35540;SDS011;21650;48.840;9.162;2022-07-06T12:11:05;5.43;;;3.10;;
35540;SDS011;21650;48.840;9.162;2022-07-06T12:13:35;6.10;;;3.37;;
35540;SDS011;21650;48.840;9.162;2022-07-06T12:16:13;5.00;;;3.77;;
35540;SDS011;21650;48.840;9.162;2022-07-06T12:18:43;7.73;;;3.33;;
35540;SDS011;21650;48.840;9.162;2022-07-06T12:21:12;6.77;;;2.93;;
35540;SDS011;21650;48.840;9.162;2022-07-06T12:23:45;3.07;;;2.03;;
35540;SDS011;21650;48.840;9.162;2022-07-06T12:26:16;3.67;;;2.40;;
35540;SDS011;21650;48.840;9.162;2022-07-06T12:28:43;7.57;;;4.00;;
35540;SDS011;21650;48.840;9.162;2022-07-06T12:31:10;7.87;;;3.33;;
35540;SDS011;21650;48.840;9.162;2022-07-06T12:33:36;3.40;;;2.63;;
35540;SDS011;21650;48.840;9.162;2022-07-06T12:36:13;9.03;;;3.13;;
35540;SDS011;21650;48.840;9.162;2022-07-06T12:38:43;8.00;;;2.87;;
35540;SDS011;21650;48.840;9.162;2022-07-06T12:41:10;5.63;;;2.47;;
35540;SDS011;21650;48.840;9.162;2022-07-06T12:43:39;5.90;;;2.90;;
35540;SDS011;21650;48.840;9.162;2022-07-06T12:48:55;4.97;;;2.00;;
35540;SDS011;21650;48.840;9.162;2022-07-06T12:51:22;3.80;;;2.60;;
35540;SDS011;21650;48.840;9.162;2022-07-06T12:53:48;4.63;;;2.33;;
35540;SDS011;21650;48.840;9.162;2022-07-06T12:56:14;3.30;;;2.50;;
35540;SDS011;21650;48.840;9.162;2022-07-06T13:01:23;4.47;;;2.50;;
35540;SDS011;21650;48.840;9.162;2022-07-06T13:03:52;2.63;;;2.30;;
35540;SDS011;21650;48.840;9.162;2022-07-06T13:06:29;3.80;;;2.30;;
35540;SDS011;21650;48.840;9.162;2022-07-06T13:08:55;2.77;;;2.57;;
35540;SDS011;21650;48.840;9.162;2022-07-06T13:11:21;3.53;;;2.27;;
35540;SDS011;21650;48.840;9.162;2022-07-06T13:13:47;5.50;;;2.10;;
35540;SDS011;21650;48.840;9.162;2022-07-06T13:16:12;4.07;;;2.13;;
35540;SDS011;21650;48.840;9.162;2022-07-06T13:18:38;3.87;;;2.00;;
35540;SDS011;21650;48.840;9.162;2022-07-06T13:21:03;3.20;;;1.93;;
35540;SDS011;21650;48.840;9.162;2022-07-06T13:23:29;4.27;;;2.20;;
35540;SDS011;21650;48.840;9.162;2022-07-06T13:25:54;5.03;;;2.13;;
35540;SDS011;21650;48.840;9.162;2022-07-06T13:28:20;4.60;;;1.90;;
35540;SDS011;21650;48.840;9.162;2022-07-06T13:30:46;2.73;;;2.33;;
35540;SDS011;21650;48.840;9.162;2022-07-06T13:33:11;4.63;;;2.20;;
35540;SDS011;21650;48.840;9.162;2022-07-06T13:35:37;2.67;;;2.23;;
35540;SDS011;21650;48.840;9.162;2022-07-06T13:38:02;4.23;;;2.50;;
35540;SDS011;21650;48.840;9.162;2022-07-06T13:40:28;2.00;;;1.80;;
35540;SDS011;21650;48.840;9.162;2022-07-06T13:42:54;2.50;;;2.17;;
35540;SDS011;21650;48.840;9.162;2022-07-06T13:45:19;8.23;;;2.60;;
35540;SDS011;21650;48.840;9.162;2022-07-06T13:47:45;6.53;;;2.77;;
35540;SDS011;21650;48.840;9.162;2022-07-06T13:50:11;7.20;;;1.73;;
35540;SDS011;21650;48.840;9.162;2022-07-06T13:52:37;5.60;;;1.90;;
35540;SDS011;21650;48.840;9.162;2022-07-06T13:55:04;2.10;;;1.60;;
35540;SDS011;21650;48.840;9.162;2022-07-06T13:57:31;4.87;;;1.93;;
35540;SDS011;21650;48.840;9.162;2022-07-06T13:59:57;4.20;;;2.20;;
35540;SDS011;21650;48.840;9.162;2022-07-06T14:02:23;4.97;;;2.10;;
35540;SDS011;21650;48.840;9.162;2022-07-06T14:04:49;2.60;;;1.87;;
35540;SDS011;21650;48.840;9.162;2022-07-06T14:07:15;6.57;;;2.63;;
35540;SDS011;21650;48.840;9.162;2022-07-06T14:09:41;6.07;;;1.90;;
35540;SDS011;21650;48.840;9.162;2022-07-06T14:12:07;3.23;;;1.80;;
35540;SDS011;21650;48.840;9.162;2022-07-06T14:14:32;3.93;;;1.77;;
35540;SDS011;21650;48.840;9.162;2022-07-06T14:16:58;5.23;;;2.23;;
35540;SDS011;21650;48.840;9.162;2022-07-06T14:19:24;5.53;;;2.20;;
35540;SDS011;21650;48.840;9.162;2022-07-06T14:21:51;6.27;;;3.00;;
35540;SDS011;21650;48.840;9.162;2022-07-06T14:24:16;2.70;;;2.00;;
35540;SDS011;21650;48.840;9.162;2022-07-06T14:26:42;2.23;;;1.80;;
35540;SDS011;21650;48.840;9.162;2022-07-06T14:29:08;4.87;;;1.80;;
35540;SDS011;21650;48.840;9.162;2022-07-06T14:31:34;2.23;;;1.63;;
35540;SDS011;21650;48.840;9.162;2022-07-06T14:33:59;3.03;;;1.87;;
35540;SDS011;21650;48.840;9.162;2022-07-06T14:36:25;4.67;;;1.93;;
35540;SDS011;21650;48.840;9.162;2022-07-06T14:38:51;4.97;;;1.90;;
35540;SDS011;21650;48.840;9.162;2022-07-06T14:41:16;3.57;;;1.63;;
35540;SDS011;21650;48.840;9.162;2022-07-06T14:43:42;3.87;;;1.77;;
35540;SDS011;21650;48.840;9.162;2022-07-06T14:46:08;5.47;;;2.13;;
35540;SDS011;21650;48.840;9.162;2022-07-06T14:48:33;4.03;;;1.97;;
35540;SDS011;21650;48.840;9.162;2022-07-06T14:50:59;1.83;;;1.60;;
35540;SDS011;21650;48.840;9.162;2022-07-06T14:53:25;7.07;;;1.80;;
35540;SDS011;21650;48.840;9.162;2022-07-06T14:55:51;2.60;;;1.53;;
35540;SDS011;21650;48.840;9.162;2022-07-06T14:58:16;1.73;;;1.60;;
35540;SDS011;21650;48.840;9.162;2022-07-06T15:00:43;4.37;;;1.67;;
35540;SDS011;21650;48.840;9.162;2022-07-06T15:03:12;2.10;;;1.57;;
35540;SDS011;21650;48.840;9.162;2022-07-06T15:05:38;2.50;;;1.63;;